Sansui, China
Current Conditions -  °F | °C
As of 1:00 AM on Saturday 25 Oct 2014 (Local Time) from ZUGY Reporting Station
Broken Clouds Broken Clouds  
Wind Chill: 57°   Ceiling: 4600
Heat Index: 57°   Visibility: 4mi
Dew Point: 55°   Wind: 2mph
Humidity: 94%   Direction: NA
Pressure: 30.15"   Gusts: NA
Location:  26.97°N, 108.67°E
Report Text: ZUGY 241700Z VRB01MPS 7000 BKN046 14/13 Q1021 NOSIG
Loading
Personal Weather Stations






























Interactive Weather Map
Tropical Storm Tracking
New forecast layout! Learn more

10-Day Weather Forecast

Advertisements
Track Severe Weather on mobile